Time,TemperatureF,DewpointF,PressureIn,WindDirection,WindDirectionDegrees,WindSpeedMPH,WindSpeedGustMPH,Humidity,HourlyPrecipIn,Conditions,Clouds,dailyrainin,SoftwareType,DateUTC
2013-07-02 00:22:00,69.0,44.0,-100.00,ESE,112,2.0,4.0,40,0.00,,,0.00,,2013-07-02 07:22:00,
2013-07-02 00:52:00,69.0,44.0,-100.00,ESE,112,2.0,4.0,40,0.00,,,0.00,,2013-07-02 07:52:00,
2013-07-02 01:33:00,66.0,43.0,-100.00,ESE,115,1.0,4.0,44,0.00,,,0.00,,2013-07-02 08:33:00,
2013-07-02 01:44:00,66.0,43.0,-100.00,ESE,115,1.0,4.0,44,0.00,,,0.00,,2013-07-02 08:44:00,
2013-07-02 01:52:00,66.0,43.0,-100.00,ESE,115,1.0,4.0,44,0.00,,,0.00,,2013-07-02 08:52:00,
2013-07-02 02:11:00,64.0,44.0,-100.00,SE,130,2.0,4.0,49,0.00,,,0.00,,2013-07-02 09:11:00,
2013-07-02 02:22:00,64.0,44.0,-100.00,SE,130,2.0,4.0,49,0.00,,,0.00,,2013-07-02 09:22:00,
2013-07-02 02:33:00,64.0,44.0,-100.00,SE,130,2.0,4.0,49,0.00,,,0.00,,2013-07-02 09:33:00,
2013-07-02 02:43:00,64.0,44.0,-100.00,SE,130,2.0,4.0,49,0.00,,,0.00,,2013-07-02 09:43:00,
2013-07-02 02:52:00,64.0,44.0,-100.00,SE,130,2.0,4.0,49,0.00,,,0.00,,2013-07-02 09:52:00,
2013-07-02 03:11:00,65.0,46.0,-100.00,SE,124,2.0,4.0,50,0.00,,,0.00,,2013-07-02 10:11:00,
2013-07-02 03:22:00,65.0,46.0,-100.00,SE,124,2.0,4.0,50,0.00,,,0.00,,2013-07-02 10:22:00,
2013-07-02 03:33:00,65.0,46.0,-100.00,SE,124,2.0,4.0,50,0.00,,,0.00,,2013-07-02 10:33:00,
2013-07-02 03:43:00,65.0,46.0,-100.00,SE,124,2.0,4.0,50,0.00,,,0.00,,2013-07-02 10:43:00,
2013-07-02 03:52:00,65.0,46.0,-100.00,SE,124,2.0,4.0,50,0.00,,,0.00,,2013-07-02 10:52:00,
2013-07-02 04:22:00,65.0,46.0,-100.00,ESE,123,2.0,4.0,51,0.00,,,0.00,,2013-07-02 11:22:00,
2013-07-02 04:33:00,65.0,46.0,-100.00,ESE,123,2.0,4.0,51,0.00,,,0.00,,2013-07-02 11:33:00,
2013-07-02 04:42:00,65.0,46.0,-100.00,ESE,123,2.0,4.0,51,0.00,,,0.00,,2013-07-02 11:42:00,
2013-07-02 04:52:00,65.0,46.0,-100.00,ESE,123,2.0,4.0,51,0.00,,,0.00,,2013-07-02 11:52:00,
2013-07-02 05:11:00,64.0,45.0,-100.00,ESE,122,1.0,3.0,50,0.00,,,0.00,,2013-07-02 12:11:00,
2013-07-02 05:23:00,64.0,45.0,-100.00,ESE,122,1.0,3.0,50,0.00,,,0.00,,2013-07-02 12:23:00,
2013-07-02 05:33:00,64.0,45.0,-100.00,ESE,122,1.0,3.0,50,0.00,,,0.00,,2013-07-02 12:33:00,
2013-07-02 05:43:00,64.0,45.0,-100.00,ESE,122,1.0,3.0,50,0.00,,,0.00,,2013-07-02 12:43:00,
2013-07-02 05:52:00,64.0,45.0,-100.00,ESE,122,1.0,3.0,50,0.00,,,0.00,,2013-07-02 12:52:00,
2013-07-02 06:11:00,65.0,44.0,-100.00,ESE,118,2.0,4.0,47,0.00,,,0.00,,2013-07-02 13:11:00,
2013-07-02 06:22:00,65.0,44.0,-100.00,ESE,118,2.0,4.0,47,0.00,,,0.00,,2013-07-02 13:22:00,
2013-07-02 06:34:00,65.0,44.0,-100.00,ESE,118,2.0,4.0,47,0.00,,,0.00,,2013-07-02 13:34:00,
2013-07-02 06:43:00,65.0,44.0,-100.00,ESE,118,2.0,4.0,47,0.00,,,0.00,,2013-07-02 13:43:00,
2013-07-02 06:52:00,65.0,44.0,-100.00,ESE,118,2.0,4.0,47,0.00,,,0.00,,2013-07-02 13:52:00,
2013-07-02 06:53:00,72.0,44.0,-100.00,ESE,110,3.0,4.0,37,0.00,,,0.00,,2013-07-02 13:53:00,
2013-07-02 07:22:00,72.0,44.0,-100.00,ESE,110,3.0,4.0,37,0.00,,,0.00,,2013-07-02 14:22:00,
2013-07-02 07:33:00,72.0,44.0,-100.00,ESE,110,3.0,4.0,37,0.00,,,0.00,,2013-07-02 14:33:00,
2013-07-02 07:43:00,72.0,44.0,-100.00,ESE,110,3.0,4.0,37,0.00,,,0.00,,2013-07-02 14:43:00,
2013-07-02 07:53:00,78.0,43.0,-100.00,ESE,106,3.0,6.0,29,0.00,,,0.00,,2013-07-02 14:53:00,
2013-07-02 08:22:00,78.0,43.0,-100.00,ESE,106,3.0,6.0,29,0.00,,,0.00,,2013-07-02 15:22:00,
2013-07-02 08:33:00,78.0,43.0,-100.00,ESE,106,3.0,6.0,29,0.00,,,0.00,,2013-07-02 15:33:00,
2013-07-02 08:44:00,78.0,43.0,-100.00,ESE,106,3.0,6.0,29,0.00,,,0.00,,2013-07-02 15:44:00,
2013-07-02 09:22:00,82.0,45.0,-100.00,SE,136,5.0,12.0,27,0.00,,,0.00,,2013-07-02 16:22:00,
2013-07-02 09:33:00,82.0,45.0,-100.00,SE,136,5.0,12.0,27,0.00,,,0.00,,2013-07-02 16:33:00,
2013-07-02 09:43:00,82.0,45.0,-100.00,SE,136,5.0,12.0,27,0.00,,,0.00,,2013-07-02 16:43:00,
2013-07-02 09:52:00,82.0,45.0,-100.00,SE,136,5.0,12.0,27,0.00,,,0.00,,2013-07-02 16:52:00,
2013-07-02 09:53:00,86.0,45.0,-100.00,East,94,6.0,13.0,24,0.00,,,0.00,,2013-07-02 16:53:00,
2013-07-02 10:22:00,86.0,45.0,-100.00,East,94,6.0,13.0,24,0.00,,,0.00,,2013-07-02 17:22:00,
2013-07-02 10:33:00,86.0,45.0,-100.00,East,94,6.0,13.0,24,0.00,,,0.00,,2013-07-02 17:33:00,
2013-07-02 10:43:00,86.0,45.0,-100.00,East,94,6.0,13.0,24,0.00,,,0.00,,2013-07-02 17:43:00,
2013-07-02 10:53:00,88.0,44.0,-100.00,SSE,156,6.0,14.0,22,0.00,,,0.00,,2013-07-02 17:53:00,
2013-07-02 11:23:00,88.0,44.0,-100.00,SSE,156,6.0,14.0,22,0.00,,,0.00,,2013-07-02 18:23:00,
2013-07-02 11:34:00,88.0,44.0,-100.00,SSE,156,6.0,14.0,22,0.00,,,0.00,,2013-07-02 18:34:00,
2013-07-02 11:43:00,88.0,44.0,-100.00,SSE,156,6.0,14.0,22,0.00,,,0.00,,2013-07-02 18:43:00,
2013-07-02 11:53:00,90.0,43.0,-100.00,SSE,152,7.0,14.0,20,0.00,,,0.00,,2013-07-02 18:53:00,
2013-07-02 12:12:00,90.0,43.0,-100.00,SSE,152,7.0,14.0,20,0.00,,,0.00,,2013-07-02 19:12:00,
2013-07-02 12:22:00,90.0,43.0,-100.00,SSE,152,7.0,14.0,20,0.00,,,0.00,,2013-07-02 19:22:00,
2013-07-02 12:34:00,90.0,43.0,-100.00,SSE,152,7.0,14.0,20,0.00,,,0.00,,2013-07-02 19:34:00,
2013-07-02 12:43:00,90.0,43.0,-100.00,SSE,152,7.0,14.0,20,0.00,,,0.00,,2013-07-02 19:43:00,
2013-07-02 13:11:00,92.0,44.0,-100.00,South,175,5.0,14.0,19,0.00,,,0.00,,2013-07-02 20:11:00,
2013-07-02 13:22:00,92.0,44.0,-100.00,South,175,5.0,14.0,19,0.00,,,0.00,,2013-07-02 20:22:00,
2013-07-02 13:33:00,92.0,44.0,-100.00,South,175,5.0,14.0,19,0.00,,,0.00,,2013-07-02 20:33:00,
2013-07-02 13:43:00,92.0,44.0,-100.00,South,175,5.0,14.0,19,0.00,,,0.00,,2013-07-02 20:43:00,
2013-07-02 13:52:00,92.0,44.0,-100.00,South,175,5.0,14.0,19,0.00,,,0.00,,2013-07-02 20:52:00,
2013-07-02 14:22:00,88.0,46.0,-100.00,West,278,5.0,11.0,23,0.00,,,0.00,,2013-07-02 21:22:00,
2013-07-02 14:33:00,88.0,46.0,-100.00,West,278,5.0,11.0,23,0.00,,,0.00,,2013-07-02 21:33:00,
2013-07-02 14:43:00,88.0,46.0,-100.00,West,278,5.0,11.0,23,0.00,,,0.00,,2013-07-02 21:43:00,
2013-07-02 14:52:00,88.0,46.0,-100.00,West,278,5.0,11.0,23,0.00,,,0.00,,2013-07-02 21:52:00,
2013-07-02 14:53:00,87.0,47.0,-100.00,WNW,292,6.0,11.0,25,0.00,,,0.00,,2013-07-02 21:53:00,
2013-07-02 15:22:00,87.0,47.0,-100.00,WNW,292,6.0,11.0,25,0.00,,,0.00,,2013-07-02 22:22:00,
2013-07-02 15:33:00,87.0,47.0,-100.00,WNW,292,6.0,11.0,25,0.00,,,0.00,,2013-07-02 22:33:00,
2013-07-02 15:43:00,87.0,47.0,-100.00,WNW,292,6.0,11.0,25,0.00,,,0.00,,2013-07-02 22:43:00,
2013-07-02 16:11:00,84.0,45.0,-100.00,WNW,288,6.0,11.0,26,0.00,,,0.00,,2013-07-02 23:11:00,
2013-07-02 16:22:00,84.0,45.0,-100.00,WNW,288,6.0,11.0,26,0.00,,,0.00,,2013-07-02 23:22:00,
2013-07-02 16:33:00,84.0,45.0,-100.00,WNW,288,6.0,11.0,26,0.00,,,0.00,,2013-07-02 23:33:00,
2013-07-02 16:44:00,84.0,45.0,-100.00,WNW,288,6.0,11.0,26,0.00,,,0.00,,2013-07-02 23:44:00,
2013-07-02 16:52:00,84.0,45.0,-100.00,WNW,288,6.0,11.0,26,0.00,,,0.00,,2013-07-02 23:52:00,
2013-07-02 17:22:00,85.0,45.0,-100.00,NW,305,6.0,13.0,25,0.00,,,0.00,,2013-07-03 00:22:00,
2013-07-02 17:33:00,85.0,45.0,-100.00,NW,305,6.0,13.0,25,0.00,,,0.00,,2013-07-03 00:33:00,
2013-07-02 17:44:00,85.0,45.0,-100.00,NW,305,6.0,13.0,25,0.00,,,0.00,,2013-07-03 00:44:00,
2013-07-02 17:52:00,85.0,45.0,-100.00,NW,305,6.0,13.0,25,0.00,,,0.00,,2013-07-03 00:52:00,
2013-07-02 18:22:00,83.0,42.0,-100.00,WNW,295,6.0,12.0,24,0.00,,,0.00,,2013-07-03 01:22:00,
2013-07-02 18:33:00,83.0,42.0,-100.00,WNW,295,6.0,12.0,24,0.00,,,0.00,,2013-07-03 01:33:00,
2013-07-02 18:42:00,83.0,42.0,-100.00,WNW,295,6.0,12.0,24,0.00,,,0.00,,2013-07-03 01:42:00,
2013-07-02 18:52:00,83.0,42.0,-100.00,WNW,295,6.0,12.0,24,0.00,,,0.00,,2013-07-03 01:52:00,
2013-07-02 19:12:00,80.0,45.0,-100.00,WNW,297,6.0,13.0,29,0.00,,,-99.99,,2013-07-03 02:12:00,
2013-07-02 19:25:00,80.0,45.0,-100.00,WNW,297,6.0,13.0,29,0.00,,,-99.99,,2013-07-03 02:25:00,
2013-07-02 19:43:00,80.0,45.0,-100.00,WNW,297,6.0,13.0,29,0.00,,,-99.99,,2013-07-03 02:43:00,
2013-07-02 19:52:00,80.0,45.0,-100.00,WNW,297,6.0,13.0,29,0.00,,,-99.99,,2013-07-03 02:52:00,
2013-07-02 20:25:00,77.0,44.0,-100.00,WNW,296,5.0,10.0,31,0.00,,,0.00,,2013-07-03 03:25:00,
2013-07-02 20:35:00,77.0,44.0,-100.00,WNW,296,5.0,10.0,31,0.00,,,0.00,,2013-07-03 03:35:00,
2013-07-02 20:44:00,77.0,44.0,-100.00,WNW,296,5.0,10.0,31,0.00,,,0.00,,2013-07-03 03:44:00,
2013-07-02 21:22:00,74.0,45.0,-100.00,NW,314,5.0,10.0,35,0.00,,,0.00,,2013-07-03 04:22:00,
2013-07-02 21:33:00,74.0,45.0,-100.00,NW,314,5.0,10.0,35,0.00,,,0.00,,2013-07-03 04:33:00,
2013-07-02 21:43:00,74.0,45.0,-100.00,NW,314,5.0,10.0,35,0.00,,,0.00,,2013-07-03 04:43:00,
2013-07-02 21:52:00,74.0,45.0,-100.00,NW,314,5.0,10.0,35,0.00,,,0.00,,2013-07-03 04:52:00,
2013-07-02 22:23:00,72.0,44.0,-100.00,NNW,330,3.0,6.0,37,0.00,,,0.00,,2013-07-03 05:23:00,
2013-07-02 22:34:00,72.0,44.0,-100.00,NNW,330,3.0,6.0,37,0.00,,,0.00,,2013-07-03 05:34:00,
2013-07-02 22:44:00,72.0,44.0,-100.00,NNW,330,3.0,6.0,37,0.00,,,0.00,,2013-07-03 05:44:00,
2013-07-02 23:24:00,71.0,44.0,-100.00,NNW,346,3.0,6.0,38,0.00,,,0.00,,2013-07-03 06:24:00,
2013-07-02 23:35:00,71.0,44.0,-100.00,NNW,346,3.0,6.0,38,0.00,,,0.00,,2013-07-03 06:35:00,
2013-07-02 23:45:00,71.0,44.0,-100.00,NNW,346,3.0,6.0,38,0.00,,,0.00,,2013-07-03 06:45:00,